»·PEaware :: N737AZ L88-KSBP

N737AZ :: L88-KSBP

FLIGHT INFORMATION

Flight Status: Arrived
Operator: Privately registered:
United States
More flights under this callsign
Pilot: Ronald A. (20436)
Aircraft: CESSNA 172 SKYHAWK
(C172)
More flights by this aircraft type
Origin: L88 New Cuyama
United States
Destination: KSBP San Luis Co Regl
United States
More flights between these airports :: More routes between these airports
Route: DIRECT
File this flight plan on PilotEdge
Remarks:
Altitude:
(Current/Filed)
6,500ft
Speed:
(Current/Filed)
110kts
Departed: 06-Oct-18 10:50 AM
Arrived: 06-Oct-18 11:26 AM
Distance/Time
Traveled:
50nm/0:36
Distance/Time
To Go:
Arrived

Flight Plot

Page will automatically refresh every two minutes.


Map Options




Map Legend


Flown Route
Filed Route
Departure Airport
Arrival Airport
Navaid (VOR, NDB)
Fix

Horizontal Profiles

Position Reports

Time Latitude Longitude Heading Altitude Ground
Speed
06-Oct-18 10:42 34.942855 -119.690286 204 2207ft 0kts
06-Oct-18 10:43 34.942835 -119.690300 216 2207ft 1kts
06-Oct-18 10:44 34.942831 -119.691092 209 2207ft 0kts
06-Oct-18 10:45 34.942831 -119.691092 209 2207ft 0kts
06-Oct-18 10:46 34.942831 -119.691092 209 2207ft 0kts
06-Oct-18 10:47 34.941691 -119.689843 116 2207ft 11kts
06-Oct-18 10:48 34.940089 -119.685879 116 2207ft 14kts
06-Oct-18 10:49 34.938630 -119.682181 115 2207ft 11kts
06-Oct-18 10:50 34.937683 -119.679994 294 2207ft 0kts
06-Oct-18 10:51 34.937683 -119.679994 294 2207ft 0kts
06-Oct-18 10:52 34.942099 -119.690262 302 2396ft 79kts
06-Oct-18 10:53 34.950938 -119.714902 288 3283ft 79kts
06-Oct-18 10:54 34.959125 -119.739996 293 4124ft 80kts
06-Oct-18 10:55 34.967394 -119.765123 297 4953ft 80kts
06-Oct-18 10:56 34.974780 -119.790460 287 5763ft 81kts
06-Oct-18 10:57 34.981201 -119.816807 295 6454ft 89kts
06-Oct-18 10:58 34.988624 -119.846886 288 6582ft 95kts
06-Oct-18 10:59 34.997015 -119.878101 296 6535ft 93kts
06-Oct-18 11:00 35.005487 -119.908078 295 6460ft 92kts
06-Oct-18 11:01 35.014511 -119.937335 296 6484ft 92kts
06-Oct-18 11:02 35.023181 -119.966880 292 6534ft 92kts
06-Oct-18 11:03 35.032565 -119.995913 296 6555ft 92kts
06-Oct-18 11:04 35.041589 -120.025104 300 6567ft 91kts
06-Oct-18 11:05 35.050172 -120.053832 297 6516ft 89kts
06-Oct-18 11:06 35.057999 -120.082780 293 6458ft 88kts
06-Oct-18 11:07 35.065802 -120.111435 294 6379ft 88kts
06-Oct-18 11:08 35.074476 -120.139606 298 6287ft 89kts
06-Oct-18 11:09 35.083638 -120.166466 300 6451ft 86kts
06-Oct-18 11:10 35.094174 -120.192187 299 6288ft 86kts
06-Oct-18 11:11 35.104035 -120.218182 301 5839ft 85kts
06-Oct-18 11:12 35.114090 -120.243837 299 5363ft 84kts
06-Oct-18 11:13 35.122246 -120.270412 287 4859ft 85kts
06-Oct-18 11:14 35.129134 -120.297530 294 4362ft 83kts
06-Oct-18 11:15 35.138259 -120.323352 298 3874ft 83kts
06-Oct-18 11:16 35.148508 -120.348339 299 3404ft 81kts
06-Oct-18 11:17 35.157058 -120.374161 291 3295ft 85kts
06-Oct-18 11:18 35.162024 -120.401471 284 3546ft 83kts
06-Oct-18 11:19 35.167597 -120.428507 294 3686ft 83kts
06-Oct-18 11:20 35.176067 -120.454161 295 3829ft 79kts
06-Oct-18 11:21 35.181911 -120.481578 283 3459ft 88kts
06-Oct-18 11:22 35.186070 -120.510562 288 2976ft 86kts
06-Oct-18 11:23 35.194229 -120.537959 299 2488ft 85kts
06-Oct-18 11:24 35.203214 -120.564901 287 2044ft 88kts
06-Oct-18 11:25 35.209678 -120.592949 301 1567ft 84kts
06-Oct-18 11:26 35.222666 -120.615403 304 781ft 80kts
06-Oct-18 11:27 35.233012 -120.633423 307 230ft 47kts
06-Oct-18 11:28 35.235377 -120.636072 29 215ft 0kts
06-Oct-18 11:29 35.235377 -120.636072 29 215ft 0kts
06-Oct-18 11:30 35.235586 -120.636057 328 215ft 7kts
06-Oct-18 11:31 35.236973 -120.637755 28 215ft 6kts
06-Oct-18 11:32 35.237658 -120.637655 266 215ft 0kts
06-Oct-18 11:33 35.237658 -120.637655 266 215ft 0kts
06-Oct-18 11:34 35.237658 -120.637655 266 215ft 0kts
06-Oct-18 11:35 35.237658 -120.637655 266 215ft 0kts
06-Oct-18 11:36 35.237658 -120.637655 266 215ft 0kts
06-Oct-18 11:37 35.237658 -120.637655 266 215ft 0kts
06-Oct-18 11:38 35.237658 -120.637655 266 215ft 0kts
06-Oct-18 11:39 35.237658 -120.637655 266 215ft 0kts
06-Oct-18 11:40 35.237658 -120.637655 266 215ft 0kts
06-Oct-18 11:41 35.237658 -120.637655 266 215ft 0kts
06-Oct-18 11:42 35.237658 -120.637655 266 215ft 0kts

Navigation Log

Ident Type
Flight plan parsing failed, navigation log unavailable